CST,Max TemperatureF,Mean TemperatureF,Min TemperatureF,Max Dew PointF,MeanDew PointF,Min DewpointF,Max Humidity, Mean Humidity, Min Humidity, Max Sea Level PressureIn, Mean Sea Level PressureIn, Min Sea Level PressureIn, Max VisibilityMiles, Mean VisibilityMiles, Min VisibilityMiles, Max Wind SpeedMPH, Mean Wind SpeedMPH, Max Gust SpeedMPH,PrecipitationIn, CloudCover, Events, WindDirDegrees
2012-11-1,53,43,33,31,23,15,65,46,26,29.92,29.86,29.82,10,10,10,14,7,20,0.00,5,,305
2012-11-2,45,37,29,31,29,27,92,73,53,30.18,30.08,29.93,10,10,9,12,5,16,0.00,2,,345
2012-11-3,44,38,31,34,31,28,92,81,70,30.25,30.21,30.15,10,10,6,12,5,15,T,6,Rain,341
2012-11-4,47,38,28,31,28,26,92,71,49,30.27,30.24,30.21,10,9,3,12,5,15,0.00,1,,337
2012-11-5,43,35,27,33,30,26,92,77,62,30.23,30.19,30.13,10,10,9,13,4,16,0.00,8,,7
2012-11-6,43,37,31,37,33,28,92,75,57,30.12,29.95,29.88,10,6,3,13,6,17,0.08,8,Rain,175
2012-11-7,45,42,38,40,38,37,93,85,76,30.17,30.05,29.89,8,4,1,7,2,8,0.01,8,Rain,43
2012-11-8,44,38,32,39,36,32,93,79,65,30.22,30.16,30.10,9,5,2,16,5,21,0.00,5,,196
2012-11-9,50,40,29,46,38,30,100,86,71,30.13,30.07,30.01,5,3,2,8,4,12,0.00,5,,103
2012-11-10,66,58,49,55,49,46,93,73,52,30.01,29.91,29.84,10,8,3,32,12,43,T,4,,169
2012-11-11,69,55,40,55,49,38,100,74,48,29.90,29.83,29.70,10,8,2,35,19,47,0.30,6,Rain,206
2012-11-12,40,33,26,37,24,16,92,74,56,30.36,30.09,29.89,10,10,6,21,9,29,T,6,Rain-Snow,254
2012-11-13,40,31,21,22,19,16,84,64,44,30.52,30.48,30.37,10,10,10,9,3,15,0.00,1,,240
2012-11-14,46,36,25,26,24,21,88,65,41,30.54,30.47,30.40,10,10,8,14,7,17,0.00,2,,182
2012-11-15,49,38,27,32,28,25,92,67,42,30.40,30.37,30.32,9,7,4,9,5,14,0.00,0,,195
2012-11-16,52,39,25,41,33,24,100,78,56,30.51,30.46,30.38,8,4,0,12,3,16,0.00,1,Fog,18
2012-11-17,51,38,25,39,30,25,100,76,52,30.58,30.49,30.45,6,2,0,13,3,16,0.00,0,Fog,165
2012-11-18,52,41,29,40,34,28,100,80,59,30.47,30.41,30.33,9,4,0,9,5,12,0.00,0,Fog,144
2012-11-19,53,44,35,43,37,33,92,74,56,30.32,30.21,30.11,9,8,5,12,4,16,T,3,Rain,157
2012-11-20,55,44,33,46,42,34,100,83,66,30.20,30.11,30.06,7,2,0,8,2,10,0.00,6,Fog,320
2012-11-21,58,44,30,45,38,30,100,80,59,30.23,30.17,30.06,7,2,0,17,8,24,0.00,0,Fog,219
2012-11-22,63,52,41,50,44,34,93,71,48,30.05,29.86,29.73,10,8,3,33,18,41,0.02,2,,209
2012-11-23,41,35,29,32,20,15,73,61,48,30.23,30.02,29.83,10,10,10,25,15,37,0.00,7,,282
2012-11-24,32,28,24,20,16,13,69,61,53,30.28,30.18,29.99,10,10,10,15,7,21,0.00,5,,263
2012-11-25,41,33,24,24,22,20,81,64,46,30.09,29.94,29.88,10,10,9,15,6,18,0.00,1,,253
2012-11-26,34,27,19,21,16,10,75,62,49,30.41,30.28,30.11,10,10,9,9,5,14,0.00,2,,307
2012-11-27,33,24,14,14,10,7,73,55,36,30.44,30.36,30.26,10,10,8,13,7,20,0.00,2,,249
2012-11-28,44,35,26,22,18,15,63,50,36,30.39,30.32,30.25,10,10,10,10,6,17,0.00,1,,242
2012-11-29,51,40,29,38,30,24,86,64,42,30.26,30.17,30.10,10,9,7,14,8,20,0.00,2,,182
2012-11-30,48,40,32,39,36,32,100,83,66,30.18,30.12,30.07,8,5,1,15,5,18,0.00,4,,48